createdAt,value
2023-05-25T00:01:28.739Z,14.07
2023-05-25T00:04:34.903Z,13.70
2023-05-25T00:07:40.672Z,14.10
2023-05-25T00:10:49.035Z,14.18
2023-05-25T00:13:54.932Z,14.43
2023-05-25T00:17:04.527Z,13.40
2023-05-25T00:20:11.077Z,13.55
2023-05-25T00:23:16.385Z,14.07
2023-05-25T00:26:27.952Z,13.07
2023-05-25T00:32:39.450Z,13.48
2023-05-25T00:35:45.901Z,14.98
2023-05-25T00:38:53.842Z,13.73
2023-05-25T00:42:03.139Z,14.90
2023-05-25T00:45:09.371Z,13.25
2023-05-25T00:48:15.338Z,14.77
2023-05-25T00:51:21.214Z,15.65
2023-05-25T00:54:27.999Z,16.08
2023-05-25T00:57:38.452Z,15.18
2023-05-25T01:00:44.649Z,15.82
2023-05-25T01:03:54.440Z,17.20
2023-05-25T01:07:01.534Z,19.27
2023-05-25T01:10:09.646Z,16.10
2023-05-25T01:13:17.814Z,16.27
2023-05-25T01:16:23.952Z,16.33
2023-05-25T01:19:29.385Z,16.13
2023-05-25T01:22:41.015Z,17.02
2023-05-25T01:25:48.819Z,15.95
2023-05-25T01:28:55.519Z,16.33
2023-05-25T01:32:01.809Z,16.70
2023-05-25T01:35:08.076Z,18.10
2023-05-25T01:38:16.324Z,17.33
2023-05-25T01:41:21.891Z,16.52
2023-05-25T01:44:27.903Z,17.52
2023-05-25T01:47:36.847Z,17.83
2023-05-25T01:50:44.905Z,17.67
2023-05-25T01:53:57.494Z,16.92
2023-05-25T01:57:04.480Z,17.75
2023-05-25T02:00:11.542Z,17.00
2023-05-25T02:03:20.400Z,16.77
2023-05-25T02:06:27.444Z,19.80
2023-05-25T02:09:35.471Z,18.27
2023-05-25T02:12:41.228Z,17.63
2023-05-25T02:15:46.697Z,16.50
2023-05-25T02:18:52.783Z,17.75
2023-05-25T02:21:58.163Z,18.23
2023-05-25T02:25:06.916Z,17.65
2023-05-25T02:28:12.647Z,17.83
2023-05-25T02:31:18.922Z,19.30
2023-05-25T02:34:25.438Z,20.50
2023-05-25T02:37:31.183Z,19.50
2023-05-25T02:40:39.402Z,18.88
2023-05-25T02:43:45.015Z,20.00
2023-05-25T02:46:50.624Z,17.98
2023-05-25T02:49:56.329Z,18.10
2023-05-25T02:53:01.882Z,17.95
2023-05-25T02:56:10.931Z,19.55
2023-05-25T02:59:16.842Z,16.85
2023-05-25T03:02:25.958Z,19.30
2023-05-25T03:05:34.928Z,20.42
2023-05-25T03:08:41.071Z,19.40
2023-05-25T03:11:48.968Z,19.27
2023-05-25T03:14:57.637Z,19.95
2023-05-25T03:18:02.931Z,18.30
2023-05-25T03:21:12.360Z,18.48
2023-05-25T03:24:17.638Z,18.80
2023-05-25T03:27:26.446Z,19.95
2023-05-25T03:30:32.464Z,20.73
2023-05-25T03:33:38.232Z,20.48
2023-05-25T03:36:46.459Z,20.67
2023-05-25T03:39:54.539Z,20.45
2023-05-25T03:43:02.601Z,20.35
2023-05-25T03:46:08.130Z,22.20
2023-05-25T03:49:14.407Z,23.17
2023-05-25T03:52:20.060Z,25.00
2023-05-25T03:55:25.378Z,25.83
2023-05-25T03:58:33.585Z,24.88
2023-05-25T04:04:45.613Z,24.20
2023-05-25T04:07:52.708Z,23.73
2023-05-25T04:10:58.205Z,25.13
2023-05-25T04:14:06.250Z,22.48
2023-05-25T04:17:14.866Z,22.73
2023-05-25T04:20:20.631Z,22.52
2023-05-25T04:23:27.381Z,24.55
2023-05-25T04:26:34.223Z,21.60
2023-05-25T04:33:06.521Z,23.55
2023-05-25T04:36:15.012Z,21.02
2023-05-25T04:39:20.695Z,21.92
2023-05-25T04:42:31.807Z,21.15
2023-05-25T04:45:37.792Z,22.02
2023-05-25T04:48:46.071Z,18.90
2023-05-25T04:51:52.899Z,21.33
2023-05-25T04:54:58.478Z,20.88
2023-05-25T04:58:06.334Z,21.45
2023-05-25T05:01:11.822Z,20.60
2023-05-25T05:04:20.102Z,19.23
2023-05-25T05:07:26.156Z,18.75
2023-05-25T05:10:31.640Z,20.67
2023-05-25T05:13:37.938Z,21.85
2023-05-25T05:16:43.681Z,20.63
2023-05-25T05:19:52.483Z,21.05
2023-05-25T05:22:58.556Z,21.15
2023-05-25T05:26:05.400Z,21.92
2023-05-25T05:29:11.076Z,21.98
2023-05-25T05:32:16.991Z,21.73
2023-05-25T05:35:25.531Z,20.45
2023-05-25T05:38:40.766Z,20.20
2023-05-25T05:41:46.427Z,21.25
2023-05-25T05:44:52.227Z,20.38
2023-05-25T05:47:58.086Z,21.02
2023-05-25T05:51:06.247Z,20.42
2023-05-25T05:54:11.871Z,19.25
2023-05-25T05:57:17.338Z,21.05
2023-05-25T06:00:23.324Z,20.70
2023-05-25T06:03:31.369Z,19.48
2023-05-25T06:06:40.947Z,19.15
2023-05-25T06:09:46.570Z,19.75
2023-05-25T06:12:52.508Z,19.70
2023-05-25T06:15:57.986Z,20.10
2023-05-25T06:19:04.012Z,19.77
2023-05-25T06:22:12.252Z,20.23
2023-05-25T06:25:18.098Z,18.63
2023-05-25T06:28:23.933Z,17.30
2023-05-25T06:31:29.835Z,20.15
2023-05-25T06:34:37.900Z,20.33
2023-05-25T06:37:46.456Z,20.83
2023-05-25T06:43:57.016Z,19.15
2023-05-25T06:47:09.017Z,21.00
2023-05-25T06:50:15.384Z,22.08
2023-05-25T06:53:23.401Z,23.55
2023-05-25T06:56:28.863Z,22.70
2023-05-25T06:59:34.305Z,22.70
2023-05-25T07:02:40.004Z,23.83
2023-05-25T07:05:45.714Z,23.63
2023-05-25T07:08:55.526Z,22.98
2023-05-25T07:12:01.563Z,22.38
2023-05-25T07:15:07.116Z,20.60
2023-05-25T07:18:13.027Z,22.40
2023-05-25T07:21:18.552Z,21.27
2023-05-25T07:24:26.429Z,20.67
2023-05-25T07:30:37.237Z,19.42
2023-05-25T07:33:47.849Z,22.83
2023-05-25T07:36:53.425Z,20.35
2023-05-25T07:40:01.849Z,20.77
2023-05-25T07:43:09.669Z,20.48
2023-05-25T07:46:15.122Z,20.33
2023-05-25T07:49:20.612Z,21.45
2023-05-25T07:52:26.056Z,20.77
2023-05-25T07:55:34.160Z,20.52
2023-05-25T07:58:39.365Z,21.92
2023-05-25T08:01:45.214Z,22.35
2023-05-25T08:04:50.897Z,21.85
2023-05-25T08:07:56.429Z,22.92
2023-05-25T08:11:04.444Z,22.60
2023-05-25T08:14:09.800Z,24.08
2023-05-25T08:17:15.610Z,22.90
2023-05-25T08:20:21.932Z,22.10
2023-05-25T08:23:27.411Z,21.00
2023-05-25T08:26:52.983Z,22.73
2023-05-25T08:30:00.139Z,21.25
2023-05-25T08:33:05.708Z,21.92
2023-05-25T08:36:11.660Z,20.02
2023-05-25T08:39:17.379Z,20.52
2023-05-25T08:42:25.318Z,22.27
2023-05-25T08:45:34.787Z,22.55
2023-05-25T08:48:42.902Z,20.73
2023-05-25T08:51:51.395Z,22.45
2023-05-25T08:54:58.105Z,21.05
2023-05-25T08:58:08.927Z,20.20
2023-05-25T09:01:16.761Z,20.30
2023-05-25T09:04:22.322Z,20.55
2023-05-25T09:07:27.884Z,20.65
2023-05-25T09:10:33.990Z,20.65
2023-05-25T09:13:42.722Z,22.05
2023-05-25T09:16:49.236Z,22.42
2023-05-25T09:19:54.897Z,21.85
2023-05-25T09:23:00.840Z,20.67
2023-05-25T09:26:06.338Z,20.17
2023-05-25T09:29:17.076Z,19.70
2023-05-25T09:32:24.589Z,21.10
2023-05-25T09:35:30.210Z,21.60
2023-05-25T09:38:36.005Z,21.58
2023-05-25T09:41:44.191Z,22.88
2023-05-25T09:44:52.694Z,22.30
2023-05-25T09:47:58.579Z,21.60
2023-05-25T09:51:04.118Z,21.88
2023-05-25T09:54:13.298Z,23.90
2023-05-25T09:57:18.943Z,20.80
2023-05-25T10:00:28.198Z,21.67
2023-05-25T10:03:33.556Z,23.00
2023-05-25T10:06:38.845Z,22.70
2023-05-25T10:09:44.891Z,21.30
2023-05-25T10:12:54.150Z,20.65
2023-05-25T10:16:02.679Z,22.88
2023-05-25T10:19:10.299Z,22.55
2023-05-25T10:22:18.948Z,22.35
2023-05-25T10:25:28.186Z,22.02
2023-05-25T10:28:39.119Z,22.55
2023-05-25T10:31:48.373Z,22.40
2023-05-25T10:34:57.469Z,21.75
2023-05-25T10:38:03.494Z,21.90
2023-05-25T10:41:09.318Z,21.70
2023-05-25T10:44:14.893Z,23.35
2023-05-25T10:47:23.780Z,23.25
2023-05-25T10:50:29.892Z,23.17
2023-05-25T10:53:35.314Z,22.98
2023-05-25T10:56:40.779Z,24.70
2023-05-25T10:59:46.610Z,24.42
2023-05-25T11:02:56.748Z,24.88
2023-05-25T11:06:03.155Z,24.10
2023-05-25T11:09:08.620Z,24.42
2023-05-25T11:12:23.984Z,24.95
2023-05-25T11:15:33.227Z,23.85
2023-05-25T11:18:46.371Z,23.45
2023-05-25T11:21:53.095Z,24.23
2023-05-25T11:25:00.879Z,22.58
2023-05-25T11:28:12.156Z,23.55
2023-05-25T11:34:30.577Z,24.27
2023-05-25T11:37:36.436Z,24.25
2023-05-25T11:40:41.967Z,24.13
2023-05-25T11:43:48.466Z,22.35
2023-05-25T11:46:53.783Z,23.30
2023-05-25T11:50:02.153Z,21.80
2023-05-25T11:53:11.147Z,22.77
2023-05-25T11:56:30.585Z,23.60
2023-05-25T11:59:40.562Z,21.90
2023-05-25T12:02:45.842Z,21.80
2023-05-25T12:05:53.709Z,22.63
2023-05-25T12:08:59.146Z,22.10
2023-05-25T12:12:06.116Z,23.25
2023-05-25T12:15:12.694Z,22.00
2023-05-25T12:18:18.335Z,21.70
2023-05-25T12:21:27.299Z,22.25
2023-05-25T12:24:32.848Z,22.48
2023-05-25T12:27:38.431Z,22.75
2023-05-25T12:30:43.929Z,23.42
2023-05-25T12:33:49.732Z,22.08
2023-05-25T12:36:58.481Z,22.58
2023-05-25T12:40:04.885Z,23.92
2023-05-25T12:43:11.915Z,21.98
2023-05-25T12:46:28.311Z,20.30
2023-05-25T12:49:34.527Z,21.73
2023-05-25T12:52:43.569Z,22.40
2023-05-25T12:55:49.733Z,22.63
2023-05-25T12:58:55.080Z,21.15
2023-05-25T13:02:00.603Z,22.48
2023-05-25T13:05:06.046Z,22.50
2023-05-25T13:08:14.233Z,20.00
2023-05-25T13:11:19.491Z,18.92
2023-05-25T13:14:25.272Z,19.35
2023-05-25T13:17:30.921Z,20.23
2023-05-25T13:20:37.321Z,22.40
2023-05-25T13:23:45.483Z,23.88
2023-05-25T13:26:51.509Z,29.67
2023-05-25T13:29:56.954Z,22.88
2023-05-25T13:33:02.622Z,23.52
2023-05-25T13:36:10.973Z,22.10
2023-05-25T13:39:19.043Z,20.63
2023-05-25T13:42:24.576Z,22.13
2023-05-25T13:45:29.986Z,21.67
2023-05-25T13:48:35.406Z,22.60
2023-05-25T13:51:40.823Z,22.05
2023-05-25T13:54:50.729Z,21.63
2023-05-25T13:57:56.172Z,22.05
2023-05-25T14:01:01.997Z,20.27
2023-05-25T14:04:07.195Z,22.27
2023-05-25T14:07:12.725Z,22.17
2023-05-25T14:10:21.101Z,21.73
2023-05-25T14:13:26.390Z,21.38
2023-05-25T14:16:31.999Z,21.35
2023-05-25T14:19:38.086Z,20.83
2023-05-25T14:22:43.438Z,21.00
2023-05-25T14:25:51.475Z,18.70
2023-05-25T14:28:57.431Z,20.10
2023-05-25T14:32:03.130Z,20.13
2023-05-25T14:35:09.570Z,19.73
2023-05-25T14:38:15.009Z,19.92
2023-05-25T14:41:23.344Z,19.65
2023-05-25T14:44:28.753Z,19.17
2023-05-25T14:47:34.213Z,18.50
2023-05-25T14:50:41.018Z,17.60
2023-05-25T14:53:46.608Z,18.80
2023-05-25T14:56:54.662Z,17.02
2023-05-25T15:00:00.183Z,18.73
2023-05-25T15:03:05.872Z,16.35
2023-05-25T15:06:11.491Z,16.73
2023-05-25T15:09:18.989Z,17.10
2023-05-25T15:12:26.870Z,16.50
2023-05-25T15:15:32.268Z,15.05
2023-05-25T15:18:37.897Z,16.40
2023-05-25T15:21:43.090Z,15.70
2023-05-25T15:24:48.502Z,15.10
2023-05-25T15:27:56.708Z,15.55
2023-05-25T15:31:03.349Z,15.52
2023-05-25T15:34:09.584Z,16.33
2023-05-25T15:37:15.511Z,15.48
2023-05-25T15:40:20.958Z,14.15
2023-05-25T15:43:28.962Z,15.23
2023-05-25T15:49:39.278Z,14.38
2023-05-25T15:52:45.109Z,14.23
2023-05-25T15:55:50.343Z,13.50
2023-05-25T15:58:58.494Z,13.05
2023-05-25T16:02:04.040Z,13.82
2023-05-25T16:05:10.232Z,13.98
2023-05-25T16:08:16.476Z,12.85
2023-05-25T16:11:21.882Z,13.77
2023-05-25T16:14:29.943Z,14.75
2023-05-25T16:17:35.540Z,15.32
2023-05-25T16:20:41.500Z,14.43
2023-05-25T16:23:47.418Z,14.25
2023-05-25T16:26:53.023Z,13.45
2023-05-25T16:30:01.338Z,14.57
2023-05-25T16:33:09.811Z,14.63
2023-05-25T16:36:15.571Z,13.38
2023-05-25T16:39:21.392Z,13.13
2023-05-25T16:42:27.992Z,13.52
2023-05-25T16:45:36.000Z,11.85
2023-05-25T16:48:41.453Z,11.32
2023-05-25T16:51:46.868Z,10.60
2023-05-25T16:54:52.098Z,10.25
2023-05-25T16:57:58.765Z,11.43
2023-05-25T17:01:07.201Z,10.25
2023-05-25T17:04:12.566Z,9.52
2023-05-25T17:07:18.389Z,12.73
2023-05-25T17:10:23.676Z,11.00
2023-05-25T17:13:29.244Z,11.18
2023-05-25T17:16:37.128Z,10.85
2023-05-25T17:19:43.064Z,11.02
2023-05-25T17:22:49.228Z,10.95
2023-05-25T17:25:54.515Z,12.02
2023-05-25T17:29:01.192Z,12.68
2023-05-25T17:32:09.727Z,11.70
2023-05-25T17:35:15.203Z,13.15
2023-05-25T17:38:20.591Z,13.93
2023-05-25T17:41:26.616Z,13.82
2023-05-25T17:44:32.172Z,14.48
2023-05-25T17:47:40.088Z,13.93
2023-05-25T17:53:50.736Z,15.18
2023-05-25T17:56:56.333Z,16.38
2023-05-25T18:00:02.145Z,16.55
2023-05-25T18:03:20.760Z,15.32
2023-05-25T18:06:28.528Z,14.88
2023-05-25T18:12:39.481Z,16.65
2023-05-25T18:15:45.193Z,16.88
2023-05-25T18:18:53.438Z,18.15
2023-05-25T18:21:59.385Z,17.65
2023-05-25T18:25:04.809Z,17.92
2023-05-25T18:28:10.564Z,19.02
2023-05-25T18:31:16.018Z,18.30
2023-05-25T18:34:24.216Z,18.08
2023-05-25T18:37:31.435Z,18.63
2023-05-25T18:40:36.814Z,18.60
2023-05-25T18:43:42.762Z,17.92
2023-05-25T18:46:50.938Z,17.88
2023-05-25T18:49:59.104Z,19.70
2023-05-25T18:53:04.552Z,19.05
2023-05-25T18:56:10.310Z,19.83
2023-05-25T18:59:15.608Z,20.45
2023-05-25T19:02:21.578Z,20.35
2023-05-25T19:05:29.474Z,20.73
2023-05-25T19:08:34.982Z,20.35
2023-05-25T19:11:40.269Z,19.73
2023-05-25T19:14:45.784Z,19.88
2023-05-25T19:17:51.309Z,19.48
2023-05-25T19:20:59.747Z,20.52
2023-05-25T19:24:04.918Z,20.90
2023-05-25T19:27:10.577Z,21.05
2023-05-25T19:30:15.985Z,21.33
2023-05-25T19:33:21.507Z,22.58
2023-05-25T19:36:29.438Z,20.92
2023-05-25T19:39:35.128Z,20.83
2023-05-25T19:42:40.946Z,21.95
2023-05-25T19:45:47.084Z,22.80
2023-05-25T19:48:52.705Z,21.45
2023-05-25T19:52:00.840Z,21.90
2023-05-25T19:55:06.177Z,21.23
2023-05-25T19:58:11.499Z,20.60
2023-05-25T20:01:16.920Z,19.98
2023-05-25T20:04:22.322Z,21.10
2023-05-25T20:07:30.269Z,20.83
2023-05-25T20:10:39.484Z,23.38
2023-05-25T20:13:46.194Z,23.65
2023-05-25T20:16:51.670Z,24.13
2023-05-25T20:19:59.923Z,22.77
2023-05-25T20:23:08.101Z,22.42
2023-05-25T20:26:13.614Z,23.15
2023-05-25T20:29:19.061Z,24.35
2023-05-25T20:32:24.800Z,24.35
2023-05-25T20:35:32.884Z,24.60
2023-05-25T20:38:40.799Z,23.65
2023-05-25T20:41:46.578Z,23.77
2023-05-25T20:44:52.005Z,23.40
2023-05-25T20:48:02.447Z,22.83
2023-05-25T20:51:08.797Z,23.33
2023-05-25T20:54:17.020Z,23.17
2023-05-25T20:57:22.480Z,23.75
2023-05-25T21:00:27.691Z,24.67
2023-05-25T21:03:33.202Z,23.58
2023-05-25T21:06:38.567Z,23.30
2023-05-25T21:09:46.733Z,23.13
2023-05-25T21:15:57.156Z,21.95
2023-05-25T21:19:02.362Z,22.17
2023-05-25T21:22:07.887Z,20.92
2023-05-25T21:25:16.683Z,22.70
2023-05-25T21:28:22.094Z,21.95
2023-05-25T21:31:27.639Z,22.98
2023-05-25T21:34:33.047Z,22.83
2023-05-25T21:37:38.492Z,22.38
2023-05-25T21:40:46.685Z,22.25
2023-05-25T21:43:52.249Z,23.02
2023-05-25T21:46:57.675Z,21.55
2023-05-25T21:50:02.972Z,21.90
2023-05-25T21:53:09.673Z,20.00
2023-05-25T21:56:17.734Z,22.30
2023-05-25T21:59:22.986Z,21.50
2023-05-25T22:02:28.419Z,20.70
2023-05-25T22:05:35.026Z,20.55
2023-05-25T22:08:41.601Z,20.45
2023-05-25T22:11:49.719Z,20.50
2023-05-25T22:14:55.510Z,21.00
2023-05-25T22:18:00.753Z,21.17
2023-05-25T22:21:06.719Z,21.08
2023-05-25T22:24:12.236Z,21.33
2023-05-25T22:27:20.353Z,18.73
2023-05-25T22:30:25.571Z,19.00
2023-05-25T22:33:31.268Z,20.08
2023-05-25T22:36:37.566Z,19.92
2023-05-25T22:39:42.883Z,21.00
2023-05-25T22:42:51.072Z,20.67
2023-05-25T22:45:58.374Z,18.88
2023-05-25T22:49:03.533Z,19.75
2023-05-25T22:52:09.162Z,23.05
2023-05-25T22:55:14.504Z,22.77
2023-05-25T22:58:22.925Z,20.35
2023-05-25T23:01:28.631Z,20.05
2023-05-25T23:04:34.112Z,21.20
2023-05-25T23:07:39.533Z,19.05
2023-05-25T23:10:45.304Z,19.17
2023-05-25T23:13:54.953Z,20.83
2023-05-25T23:17:00.643Z,20.52
2023-05-25T23:20:07.881Z,20.77
2023-05-25T23:23:13.438Z,20.58
2023-05-25T23:26:18.933Z,20.85
2023-05-25T23:29:27.005Z,22.05
2023-05-25T23:32:32.616Z,20.33
2023-05-25T23:35:38.150Z,20.60
2023-05-25T23:38:43.602Z,19.88
2023-05-25T23:41:49.302Z,20.98
2023-05-25T23:44:57.438Z,21.48
2023-05-25T23:48:03.101Z,22.05
2023-05-25T23:51:10.432Z,20.15
2023-05-25T23:54:15.745Z,21.45
2023-05-25T23:57:21.194Z,21.40
